sensor_id;sensor_type;location;lat;lon;timestamp;P1;durP1;ratioP1;P2;durP2;ratioP2
51852;SDS011;37894;53.172;6.598;2022-12-07T00:03:39;8.05;;;1.77;;
51852;SDS011;37894;53.172;6.598;2022-12-07T00:06:06;7.85;;;1.35;;
51852;SDS011;37894;53.172;6.598;2022-12-07T00:08:33;6.18;;;1.75;;
51852;SDS011;37894;53.172;6.598;2022-12-07T00:11:03;6.32;;;1.70;;
51852;SDS011;37894;53.172;6.598;2022-12-07T00:13:30;7.47;;;1.83;;
51852;SDS011;37894;53.172;6.598;2022-12-07T00:16:00;7.95;;;1.60;;
51852;SDS011;37894;53.172;6.598;2022-12-07T00:18:26;5.75;;;1.40;;
51852;SDS011;37894;53.172;6.598;2022-12-07T00:20:52;5.70;;;1.33;;
51852;SDS011;37894;53.172;6.598;2022-12-07T00:23:23;5.60;;;1.70;;
51852;SDS011;37894;53.172;6.598;2022-12-07T00:25:49;7.25;;;1.52;;
51852;SDS011;37894;53.172;6.598;2022-12-07T00:28:14;8.27;;;1.63;;
51852;SDS011;37894;53.172;6.598;2022-12-07T00:30:40;13.07;;;1.55;;
51852;SDS011;37894;53.172;6.598;2022-12-07T00:33:06;6.22;;;1.50;;
51852;SDS011;37894;53.172;6.598;2022-12-07T00:35:32;7.95;;;1.25;;
51852;SDS011;37894;53.172;6.598;2022-12-07T00:37:57;3.63;;;1.13;;
51852;SDS011;37894;53.172;6.598;2022-12-07T00:40:23;6.25;;;1.10;;
51852;SDS011;37894;53.172;6.598;2022-12-07T00:42:49;7.75;;;1.60;;
51852;SDS011;37894;53.172;6.598;2022-12-07T00:45:15;12.10;;;1.52;;
51852;SDS011;37894;53.172;6.598;2022-12-07T00:47:41;8.70;;;1.65;;
51852;SDS011;37894;53.172;6.598;2022-12-07T00:50:07;6.22;;;1.30;;
51852;SDS011;37894;53.172;6.598;2022-12-07T00:52:33;7.63;;;1.48;;
51852;SDS011;37894;53.172;6.598;2022-12-07T00:54:59;4.78;;;1.13;;
51852;SDS011;37894;53.172;6.598;2022-12-07T00:57:25;8.25;;;1.50;;
51852;SDS011;37894;53.172;6.598;2022-12-07T00:59:50;7.50;;;1.42;;
51852;SDS011;37894;53.172;6.598;2022-12-07T01:02:20;6.50;;;1.40;;
51852;SDS011;37894;53.172;6.598;2022-12-07T01:04:46;6.97;;;1.65;;
51852;SDS011;37894;53.172;6.598;2022-12-07T01:07:12;7.38;;;1.50;;
51852;SDS011;37894;53.172;6.598;2022-12-07T01:09:37;7.82;;;1.17;;
51852;SDS011;37894;53.172;6.598;2022-12-07T01:12:03;5.82;;;1.20;;
51852;SDS011;37894;53.172;6.598;2022-12-07T01:14:29;9.65;;;1.60;;
51852;SDS011;37894;53.172;6.598;2022-12-07T01:16:55;6.22;;;1.55;;
51852;SDS011;37894;53.172;6.598;2022-12-07T01:19:21;9.25;;;1.20;;
51852;SDS011;37894;53.172;6.598;2022-12-07T01:21:46;9.50;;;1.40;;
51852;SDS011;37894;53.172;6.598;2022-12-07T01:24:12;6.65;;;1.60;;
51852;SDS011;37894;53.172;6.598;2022-12-07T01:26:38;7.97;;;1.40;;
51852;SDS011;37894;53.172;6.598;2022-12-07T01:29:04;8.20;;;1.30;;
51852;SDS011;37894;53.172;6.598;2022-12-07T01:31:30;5.93;;;1.30;;
51852;SDS011;37894;53.172;6.598;2022-12-07T01:33:57;7.28;;;1.25;;
51852;SDS011;37894;53.172;6.598;2022-12-07T01:36:25;7.97;;;1.45;;
51852;SDS011;37894;53.172;6.598;2022-12-07T01:39:00;3.58;;;1.05;;
51852;SDS011;37894;53.172;6.598;2022-12-07T01:41:29;6.53;;;1.35;;
51852;SDS011;37894;53.172;6.598;2022-12-07T01:44:16;7.00;;;1.10;;
51852;SDS011;37894;53.172;6.598;2022-12-07T01:47:06;5.38;;;1.15;;
51852;SDS011;37894;53.172;6.598;2022-12-07T01:49:45;7.90;;;1.52;;
51852;SDS011;37894;53.172;6.598;2022-12-07T01:52:26;5.90;;;1.30;;
51852;SDS011;37894;53.172;6.598;2022-12-07T01:55:13;10.20;;;1.20;;
51852;SDS011;37894;53.172;6.598;2022-12-07T01:57:42;8.73;;;1.30;;
51852;SDS011;37894;53.172;6.598;2022-12-07T02:00:12;11.60;;;2.58;;
51852;SDS011;37894;53.172;6.598;2022-12-07T02:02:48;7.65;;;1.50;;
51852;SDS011;37894;53.172;6.598;2022-12-07T02:05:19;9.30;;;1.38;;
51852;SDS011;37894;53.172;6.598;2022-12-07T02:07:45;10.15;;;1.60;;
51852;SDS011;37894;53.172;6.598;2022-12-07T02:10:17;12.68;;;2.10;;
51852;SDS011;37894;53.172;6.598;2022-12-07T02:12:55;8.07;;;1.48;;
51852;SDS011;37894;53.172;6.598;2022-12-07T02:15:37;7.75;;;1.75;;
51852;SDS011;37894;53.172;6.598;2022-12-07T02:18:34;17.58;;;2.10;;
51852;SDS011;37894;53.172;6.598;2022-12-07T02:21:38;13.55;;;1.52;;
51852;SDS011;37894;53.172;6.598;2022-12-07T02:24:14;7.03;;;1.25;;
51852;SDS011;37894;53.172;6.598;2022-12-07T02:27:28;6.53;;;1.40;;
51852;SDS011;37894;53.172;6.598;2022-12-07T02:30:29;7.35;;;1.40;;
51852;SDS011;37894;53.172;6.598;2022-12-07T02:38:09;8.38;;;1.35;;
51852;SDS011;37894;53.172;6.598;2022-12-07T02:41:00;7.90;;;1.23;;
51852;SDS011;37894;53.172;6.598;2022-12-07T02:43:38;11.23;;;1.38;;
51852;SDS011;37894;53.172;6.598;2022-12-07T02:46:23;6.35;;;1.17;;
51852;SDS011;37894;53.172;6.598;2022-12-07T02:48:53;4.47;;;1.25;;
51852;SDS011;37894;53.172;6.598;2022-12-07T02:51:21;9.18;;;1.50;;
51852;SDS011;37894;53.172;6.598;2022-12-07T02:53:47;8.90;;;2.38;;
51852;SDS011;37894;53.172;6.598;2022-12-07T03:01:33;8.77;;;1.58;;
51852;SDS011;37894;53.172;6.598;2022-12-07T03:09:45;7.10;;;1.65;;
51852;SDS011;37894;53.172;6.598;2022-12-07T03:12:35;7.93;;;1.35;;
51852;SDS011;37894;53.172;6.598;2022-12-07T03:15:14;9.23;;;1.20;;
51852;SDS011;37894;53.172;6.598;2022-12-07T03:18:03;5.22;;;1.20;;
51852;SDS011;37894;53.172;6.598;2022-12-07T03:20:30;5.78;;;1.10;;
51852;SDS011;37894;53.172;6.598;2022-12-07T03:23:00;4.43;;;1.67;;
51852;SDS011;37894;53.172;6.598;2022-12-07T03:25:28;4.72;;;1.10;;
51852;SDS011;37894;53.172;6.598;2022-12-07T03:27:56;5.32;;;1.10;;
51852;SDS011;37894;53.172;6.598;2022-12-07T03:30:33;5.90;;;1.20;;
51852;SDS011;37894;53.172;6.598;2022-12-07T03:33:05;11.73;;;1.63;;
51852;SDS011;37894;53.172;6.598;2022-12-07T03:35:45;6.22;;;1.45;;
51852;SDS011;37894;53.172;6.598;2022-12-07T03:38:29;8.02;;;0.85;;
51852;SDS011;37894;53.172;6.598;2022-12-07T03:43:53;10.13;;;1.20;;
51852;SDS011;37894;53.172;6.598;2022-12-07T03:46:22;4.47;;;0.80;;
51852;SDS011;37894;53.172;6.598;2022-12-07T03:49:08;7.35;;;1.30;;
51852;SDS011;37894;53.172;6.598;2022-12-07T03:52:07;8.32;;;1.35;;
51852;SDS011;37894;53.172;6.598;2022-12-07T03:55:02;9.38;;;1.20;;
51852;SDS011;37894;53.172;6.598;2022-12-07T03:57:50;5.93;;;0.90;;
51852;SDS011;37894;53.172;6.598;2022-12-07T04:00:19;6.25;;;0.80;;
51852;SDS011;37894;53.172;6.598;2022-12-07T04:02:45;8.65;;;1.20;;
51852;SDS011;37894;53.172;6.598;2022-12-07T04:05:12;8.23;;;1.55;;
51852;SDS011;37894;53.172;6.598;2022-12-07T04:07:38;7.95;;;1.05;;
51852;SDS011;37894;53.172;6.598;2022-12-07T04:10:05;5.45;;;1.08;;
51852;SDS011;37894;53.172;6.598;2022-12-07T04:12:31;8.02;;;1.10;;
51852;SDS011;37894;53.172;6.598;2022-12-07T04:14:57;10.75;;;1.65;;
51852;SDS011;37894;53.172;6.598;2022-12-07T04:17:23;3.90;;;1.10;;
51852;SDS011;37894;53.172;6.598;2022-12-07T04:19:48;7.43;;;1.00;;
51852;SDS011;37894;53.172;6.598;2022-12-07T04:22:14;8.50;;;1.38;;
51852;SDS011;37894;53.172;6.598;2022-12-07T04:24:40;7.82;;;1.20;;
51852;SDS011;37894;53.172;6.598;2022-12-07T04:27:07;6.53;;;1.27;;
51852;SDS011;37894;53.172;6.598;2022-12-07T04:29:33;8.55;;;1.23;;
51852;SDS011;37894;53.172;6.598;2022-12-07T04:31:58;4.18;;;1.20;;
51852;SDS011;37894;53.172;6.598;2022-12-07T04:34:24;5.55;;;1.17;;
51852;SDS011;37894;53.172;6.598;2022-12-07T04:36:50;6.82;;;1.45;;
51852;SDS011;37894;53.172;6.598;2022-12-07T04:39:21;4.10;;;1.10;;
51852;SDS011;37894;53.172;6.598;2022-12-07T04:41:46;3.83;;;1.00;;
51852;SDS011;37894;53.172;6.598;2022-12-07T04:44:13;6.20;;;1.30;;
51852;SDS011;37894;53.172;6.598;2022-12-07T04:46:39;6.05;;;0.82;;
51852;SDS011;37894;53.172;6.598;2022-12-07T04:49:06;9.63;;;1.23;;
51852;SDS011;37894;53.172;6.598;2022-12-07T04:51:31;5.93;;;1.30;;
51852;SDS011;37894;53.172;6.598;2022-12-07T04:53:57;7.70;;;1.63;;
51852;SDS011;37894;53.172;6.598;2022-12-07T04:56:24;7.07;;;1.33;;
51852;SDS011;37894;53.172;6.598;2022-12-07T04:58:51;12.18;;;1.63;;
51852;SDS011;37894;53.172;6.598;2022-12-07T05:01:18;16.95;;;1.73;;
51852;SDS011;37894;53.172;6.598;2022-12-07T05:03:45;10.73;;;1.30;;
51852;SDS011;37894;53.172;6.598;2022-12-07T05:06:11;10.25;;;1.60;;
51852;SDS011;37894;53.172;6.598;2022-12-07T05:08:37;10.50;;;1.52;;
51852;SDS011;37894;53.172;6.598;2022-12-07T05:11:04;11.20;;;1.80;;
51852;SDS011;37894;53.172;6.598;2022-12-07T05:13:31;4.50;;;1.15;;
51852;SDS011;37894;53.172;6.598;2022-12-07T05:15:57;11.80;;;1.33;;
51852;SDS011;37894;53.172;6.598;2022-12-07T05:18:24;5.30;;;1.05;;
51852;SDS011;37894;53.172;6.598;2022-12-07T05:20:50;5.38;;;1.23;;
51852;SDS011;37894;53.172;6.598;2022-12-07T05:23:16;8.20;;;1.17;;
51852;SDS011;37894;53.172;6.598;2022-12-07T05:25:42;5.40;;;1.13;;
51852;SDS011;37894;53.172;6.598;2022-12-07T05:28:08;3.65;;;0.93;;
51852;SDS011;37894;53.172;6.598;2022-12-07T05:30:34;6.10;;;1.35;;
51852;SDS011;37894;53.172;6.598;2022-12-07T05:33:00;7.82;;;1.48;;
51852;SDS011;37894;53.172;6.598;2022-12-07T05:35:27;4.63;;;1.65;;
51852;SDS011;37894;53.172;6.598;2022-12-07T05:37:54;8.63;;;1.52;;
51852;SDS011;37894;53.172;6.598;2022-12-07T05:40:22;4.22;;;1.10;;
51852;SDS011;37894;53.172;6.598;2022-12-07T05:42:48;6.78;;;1.95;;
51852;SDS011;37894;53.172;6.598;2022-12-07T05:45:14;6.65;;;1.38;;
51852;SDS011;37894;53.172;6.598;2022-12-07T05:47:40;5.95;;;1.38;;
51852;SDS011;37894;53.172;6.598;2022-12-07T05:50:06;5.80;;;1.20;;
51852;SDS011;37894;53.172;6.598;2022-12-07T05:52:32;3.95;;;1.20;;
51852;SDS011;37894;53.172;6.598;2022-12-07T05:54:58;6.50;;;1.65;;
51852;SDS011;37894;53.172;6.598;2022-12-07T05:57:24;10.48;;;1.13;;
51852;SDS011;37894;53.172;6.598;2022-12-07T05:59:50;8.68;;;1.70;;
51852;SDS011;37894;53.172;6.598;2022-12-07T06:02:16;8.40;;;1.23;;
51852;SDS011;37894;53.172;6.598;2022-12-07T06:04:43;4.90;;;1.20;;
51852;SDS011;37894;53.172;6.598;2022-12-07T06:07:11;5.85;;;1.50;;
51852;SDS011;37894;53.172;6.598;2022-12-07T06:09:38;6.65;;;1.30;;
51852;SDS011;37894;53.172;6.598;2022-12-07T06:12:04;5.28;;;1.10;;
51852;SDS011;37894;53.172;6.598;2022-12-07T06:14:50;6.18;;;1.00;;
51852;SDS011;37894;53.172;6.598;2022-12-07T06:17:16;7.50;;;1.65;;
51852;SDS011;37894;53.172;6.598;2022-12-07T06:19:42;5.47;;;2.00;;
51852;SDS011;37894;53.172;6.598;2022-12-07T06:22:08;8.50;;;1.50;;
51852;SDS011;37894;53.172;6.598;2022-12-07T06:24:36;8.75;;;1.50;;
51852;SDS011;37894;53.172;6.598;2022-12-07T06:27:02;10.40;;;1.85;;
51852;SDS011;37894;53.172;6.598;2022-12-07T06:29:28;7.82;;;1.88;;
51852;SDS011;37894;53.172;6.598;2022-12-07T06:31:54;12.40;;;1.70;;
51852;SDS011;37894;53.172;6.598;2022-12-07T06:34:21;8.23;;;2.00;;
51852;SDS011;37894;53.172;6.598;2022-12-07T06:36:49;10.45;;;1.90;;
51852;SDS011;37894;53.172;6.598;2022-12-07T06:39:21;9.98;;;1.90;;
51852;SDS011;37894;53.172;6.598;2022-12-07T06:41:49;8.45;;;1.92;;
51852;SDS011;37894;53.172;6.598;2022-12-07T06:44:17;7.20;;;1.70;;
51852;SDS011;37894;53.172;6.598;2022-12-07T06:46:43;8.77;;;1.80;;
51852;SDS011;37894;53.172;6.598;2022-12-07T06:49:09;11.25;;;1.65;;
51852;SDS011;37894;53.172;6.598;2022-12-07T06:51:35;12.57;;;1.85;;
51852;SDS011;37894;53.172;6.598;2022-12-07T06:54:06;9.88;;;1.80;;
51852;SDS011;37894;53.172;6.598;2022-12-07T06:56:32;11.70;;;1.73;;
51852;SDS011;37894;53.172;6.598;2022-12-07T06:58:58;8.75;;;1.33;;
51852;SDS011;37894;53.172;6.598;2022-12-07T07:01:24;4.93;;;1.10;;
51852;SDS011;37894;53.172;6.598;2022-12-07T07:03:50;11.48;;;2.05;;
51852;SDS011;37894;53.172;6.598;2022-12-07T07:06:15;6.85;;;1.50;;
51852;SDS011;37894;53.172;6.598;2022-12-07T07:08:41;7.05;;;1.80;;
51852;SDS011;37894;53.172;6.598;2022-12-07T07:11:08;5.22;;;1.60;;
51852;SDS011;37894;53.172;6.598;2022-12-07T07:13:34;7.40;;;1.67;;
51852;SDS011;37894;53.172;6.598;2022-12-07T07:16:00;14.82;;;1.95;;
51852;SDS011;37894;53.172;6.598;2022-12-07T07:18:26;16.17;;;1.63;;
51852;SDS011;37894;53.172;6.598;2022-12-07T07:20:52;9.13;;;1.50;;
51852;SDS011;37894;53.172;6.598;2022-12-07T07:23:19;8.68;;;1.42;;
51852;SDS011;37894;53.172;6.598;2022-12-07T07:25:45;7.53;;;1.40;;
51852;SDS011;37894;53.172;6.598;2022-12-07T07:28:11;8.52;;;1.33;;
51852;SDS011;37894;53.172;6.598;2022-12-07T07:30:37;7.13;;;1.67;;
51852;SDS011;37894;53.172;6.598;2022-12-07T07:33:03;12.60;;;1.40;;
51852;SDS011;37894;53.172;6.598;2022-12-07T07:35:30;6.25;;;1.52;;
51852;SDS011;37894;53.172;6.598;2022-12-07T07:37:57;10.77;;;2.53;;
51852;SDS011;37894;53.172;6.598;2022-12-07T07:40:23;8.98;;;1.65;;
51852;SDS011;37894;53.172;6.598;2022-12-07T07:42:50;13.27;;;1.70;;
51852;SDS011;37894;53.172;6.598;2022-12-07T07:45:17;8.27;;;1.50;;
51852;SDS011;37894;53.172;6.598;2022-12-07T07:47:43;7.38;;;1.42;;
51852;SDS011;37894;53.172;6.598;2022-12-07T07:50:09;6.20;;;1.38;;
51852;SDS011;37894;53.172;6.598;2022-12-07T07:52:36;10.80;;;1.48;;
51852;SDS011;37894;53.172;6.598;2022-12-07T07:55:02;3.67;;;1.13;;
51852;SDS011;37894;53.172;6.598;2022-12-07T07:57:28;4.13;;;1.20;;
51852;SDS011;37894;53.172;6.598;2022-12-07T07:59:53;9.88;;;1.83;;
51852;SDS011;37894;53.172;6.598;2022-12-07T08:02:20;8.73;;;1.70;;
51852;SDS011;37894;53.172;6.598;2022-12-07T08:04:47;8.93;;;1.95;;
51852;SDS011;37894;53.172;6.598;2022-12-07T08:07:13;5.05;;;1.40;;
51852;SDS011;37894;53.172;6.598;2022-12-07T08:09:40;8.43;;;2.10;;
51852;SDS011;37894;53.172;6.598;2022-12-07T08:12:06;7.65;;;2.10;;
51852;SDS011;37894;53.172;6.598;2022-12-07T08:14:32;12.05;;;1.85;;
51852;SDS011;37894;53.172;6.598;2022-12-07T08:16:59;12.30;;;2.20;;
51852;SDS011;37894;53.172;6.598;2022-12-07T08:19:25;10.13;;;2.08;;
51852;SDS011;37894;53.172;6.598;2022-12-07T08:21:51;9.43;;;2.05;;
51852;SDS011;37894;53.172;6.598;2022-12-07T08:24:17;13.60;;;2.65;;
51852;SDS011;37894;53.172;6.598;2022-12-07T08:26:43;7.45;;;1.90;;
51852;SDS011;37894;53.172;6.598;2022-12-07T08:29:09;7.28;;;1.70;;
51852;SDS011;37894;53.172;6.598;2022-12-07T08:31:34;14.38;;;2.08;;
51852;SDS011;37894;53.172;6.598;2022-12-07T08:34:00;7.70;;;1.83;;
51852;SDS011;37894;53.172;6.598;2022-12-07T08:36:26;10.90;;;2.00;;
51852;SDS011;37894;53.172;6.598;2022-12-07T08:38:51;7.15;;;2.17;;
51852;SDS011;37894;53.172;6.598;2022-12-07T08:41:18;14.20;;;2.88;;
51852;SDS011;37894;53.172;6.598;2022-12-07T08:43:43;7.10;;;1.85;;
51852;SDS011;37894;53.172;6.598;2022-12-07T08:46:30;9.30;;;1.92;;
51852;SDS011;37894;53.172;6.598;2022-12-07T08:51:36;9.55;;;1.58;;
51852;SDS011;37894;53.172;6.598;2022-12-07T08:54:03;7.80;;;1.90;;
51852;SDS011;37894;53.172;6.598;2022-12-07T08:56:31;13.88;;;1.90;;
51852;SDS011;37894;53.172;6.598;2022-12-07T08:58:57;8.55;;;1.60;;
51852;SDS011;37894;53.172;6.598;2022-12-07T09:01:23;9.63;;;2.20;;
51852;SDS011;37894;53.172;6.598;2022-12-07T09:03:49;8.48;;;1.60;;
51852;SDS011;37894;53.172;6.598;2022-12-07T09:06:15;7.57;;;2.03;;
51852;SDS011;37894;53.172;6.598;2022-12-07T09:08:42;11.27;;;1.92;;
51852;SDS011;37894;53.172;6.598;2022-12-07T09:11:11;8.80;;;2.13;;
51852;SDS011;37894;53.172;6.598;2022-12-07T09:13:37;12.52;;;2.40;;
51852;SDS011;37894;53.172;6.598;2022-12-07T09:16:03;11.18;;;2.00;;
51852;SDS011;37894;53.172;6.598;2022-12-07T09:18:29;13.18;;;1.95;;
51852;SDS011;37894;53.172;6.598;2022-12-07T09:20:55;10.95;;;2.22;;
51852;SDS011;37894;53.172;6.598;2022-12-07T09:23:21;8.82;;;2.50;;
51852;SDS011;37894;53.172;6.598;2022-12-07T09:25:47;9.10;;;2.00;;
51852;SDS011;37894;53.172;6.598;2022-12-07T09:28:13;10.70;;;2.03;;
51852;SDS011;37894;53.172;6.598;2022-12-07T09:30:39;8.80;;;1.95;;
51852;SDS011;37894;53.172;6.598;2022-12-07T09:33:10;7.60;;;1.90;;
51852;SDS011;37894;53.172;6.598;2022-12-07T09:35:36;8.10;;;2.00;;
51852;SDS011;37894;53.172;6.598;2022-12-07T09:38:02;7.68;;;2.17;;
51852;SDS011;37894;53.172;6.598;2022-12-07T09:40:28;9.85;;;2.65;;
51852;SDS011;37894;53.172;6.598;2022-12-07T09:42:54;11.60;;;1.80;;
51852;SDS011;37894;53.172;6.598;2022-12-07T09:45:29;9.90;;;1.73;;
51852;SDS011;37894;53.172;6.598;2022-12-07T09:47:59;6.07;;;1.60;;
51852;SDS011;37894;53.172;6.598;2022-12-07T09:50:26;10.93;;;1.67;;
51852;SDS011;37894;53.172;6.598;2022-12-07T09:52:53;9.32;;;1.63;;
51852;SDS011;37894;53.172;6.598;2022-12-07T09:55:28;7.85;;;2.03;;
51852;SDS011;37894;53.172;6.598;2022-12-07T09:57:54;7.13;;;1.50;;
51852;SDS011;37894;53.172;6.598;2022-12-07T10:00:22;6.85;;;1.67;;
51852;SDS011;37894;53.172;6.598;2022-12-07T10:02:55;6.90;;;1.63;;
51852;SDS011;37894;53.172;6.598;2022-12-07T10:05:27;5.47;;;1.25;;
51852;SDS011;37894;53.172;6.598;2022-12-07T10:07:57;10.75;;;1.33;;
51852;SDS011;37894;53.172;6.598;2022-12-07T10:10:25;10.07;;;2.45;;
51852;SDS011;37894;53.172;6.598;2022-12-07T10:12:57;11.47;;;2.37;;
51852;SDS011;37894;53.172;6.598;2022-12-07T10:23:36;8.25;;;2.10;;
51852;SDS011;37894;53.172;6.598;2022-12-07T10:28:55;12.32;;;1.98;;
51852;SDS011;37894;53.172;6.598;2022-12-07T10:31:24;10.80;;;2.15;;
51852;SDS011;37894;53.172;6.598;2022-12-07T10:33:59;9.52;;;1.38;;
51852;SDS011;37894;53.172;6.598;2022-12-07T10:39:14;7.00;;;2.17;;
51852;SDS011;37894;53.172;6.598;2022-12-07T10:42:01;8.73;;;1.90;;
51852;SDS011;37894;53.172;6.598;2022-12-07T10:44:32;5.72;;;1.40;;
51852;SDS011;37894;53.172;6.598;2022-12-07T11:00:23;7.20;;;1.50;;
51852;SDS011;37894;53.172;6.598;2022-12-07T11:11:12;7.13;;;1.38;;
51852;SDS011;37894;53.172;6.598;2022-12-07T11:16:19;9.63;;;1.95;;
51852;SDS011;37894;53.172;6.598;2022-12-07T11:19:03;13.25;;;1.65;;
51852;SDS011;37894;53.172;6.598;2022-12-07T11:24:08;8.60;;;1.80;;
51852;SDS011;37894;53.172;6.598;2022-12-07T11:35:11;8.18;;;1.50;;
51852;SDS011;37894;53.172;6.598;2022-12-07T11:37:55;5.43;;;1.23;;
51852;SDS011;37894;53.172;6.598;2022-12-07T11:40:35;12.80;;;1.88;;
51852;SDS011;37894;53.172;6.598;2022-12-07T11:45:59;6.40;;;1.70;;
51852;SDS011;37894;53.172;6.598;2022-12-07T11:48:38;7.60;;;1.55;;
51852;SDS011;37894;53.172;6.598;2022-12-07T11:51:10;6.38;;;1.23;;
51852;SDS011;37894;53.172;6.598;2022-12-07T11:53:41;7.05;;;1.80;;
51852;SDS011;37894;53.172;6.598;2022-12-07T11:56:12;3.85;;;1.23;;
51852;SDS011;37894;53.172;6.598;2022-12-07T12:01:56;6.00;;;1.15;;
51852;SDS011;37894;53.172;6.598;2022-12-07T12:04:32;3.97;;;0.98;;
51852;SDS011;37894;53.172;6.598;2022-12-07T12:07:14;7.60;;;1.52;;
51852;SDS011;37894;53.172;6.598;2022-12-07T12:09:51;2.53;;;0.93;;
51852;SDS011;37894;53.172;6.598;2022-12-07T12:12:40;3.55;;;0.90;;
51852;SDS011;37894;53.172;6.598;2022-12-07T12:18:05;5.95;;;1.15;;
51852;SDS011;37894;53.172;6.598;2022-12-07T12:20:45;5.80;;;1.27;;
51852;SDS011;37894;53.172;6.598;2022-12-07T12:23:17;9.35;;;1.88;;
51852;SDS011;37894;53.172;6.598;2022-12-07T12:25:47;7.88;;;1.23;;
51852;SDS011;37894;53.172;6.598;2022-12-07T12:28:22;6.07;;;1.20;;
51852;SDS011;37894;53.172;6.598;2022-12-07T12:33:48;10.15;;;1.75;;
51852;SDS011;37894;53.172;6.598;2022-12-07T12:41:52;7.53;;;1.38;;
51852;SDS011;37894;53.172;6.598;2022-12-07T12:47:00;3.05;;;1.30;;
51852;SDS011;37894;53.172;6.598;2022-12-07T12:51:54;6.35;;;1.27;;
51852;SDS011;37894;53.172;6.598;2022-12-07T12:56:57;6.72;;;1.50;;
51852;SDS011;37894;53.172;6.598;2022-12-07T12:59:38;6.25;;;1.23;;
51852;SDS011;37894;53.172;6.598;2022-12-07T13:02:24;5.68;;;1.35;;
51852;SDS011;37894;53.172;6.598;2022-12-07T13:12:58;8.10;;;1.30;;
51852;SDS011;37894;53.172;6.598;2022-12-07T13:23:38;4.97;;;0.95;;
51852;SDS011;37894;53.172;6.598;2022-12-07T13:26:20;3.95;;;0.93;;
51852;SDS011;37894;53.172;6.598;2022-12-07T13:31:47;3.67;;;1.10;;
51852;SDS011;37894;53.172;6.598;2022-12-07T13:37:12;5.55;;;1.00;;
51852;SDS011;37894;53.172;6.598;2022-12-07T13:39:50;5.07;;;1.00;;
51852;SDS011;37894;53.172;6.598;2022-12-07T13:44:51;5.18;;;1.00;;
51852;SDS011;37894;53.172;6.598;2022-12-07T13:47:31;6.85;;;1.50;;
51852;SDS011;37894;53.172;6.598;2022-12-07T13:52:50;3.70;;;0.80;;
51852;SDS011;37894;53.172;6.598;2022-12-07T13:55:19;3.45;;;1.05;;
51852;SDS011;37894;53.172;6.598;2022-12-07T13:57:47;3.15;;;0.80;;
51852;SDS011;37894;53.172;6.598;2022-12-07T14:00:20;2.33;;;0.80;;
51852;SDS011;37894;53.172;6.598;2022-12-07T14:05:45;1.92;;;0.80;;
51852;SDS011;37894;53.172;6.598;2022-12-07T14:10:41;5.60;;;1.00;;
51852;SDS011;37894;53.172;6.598;2022-12-07T14:15:59;4.75;;;1.20;;
51852;SDS011;37894;53.172;6.598;2022-12-07T14:18:36;4.32;;;1.10;;
51852;SDS011;37894;53.172;6.598;2022-12-07T14:21:04;5.63;;;1.27;;
51852;SDS011;37894;53.172;6.598;2022-12-07T14:23:43;7.68;;;1.35;;
51852;SDS011;37894;53.172;6.598;2022-12-07T14:26:15;5.10;;;1.20;;
51852;SDS011;37894;53.172;6.598;2022-12-07T14:28:46;8.32;;;2.55;;
51852;SDS011;37894;53.172;6.598;2022-12-07T14:31:16;8.70;;;2.25;;
51852;SDS011;37894;53.172;6.598;2022-12-07T14:33:46;5.53;;;2.25;;
51852;SDS011;37894;53.172;6.598;2022-12-07T14:36:12;5.40;;;1.95;;
51852;SDS011;37894;53.172;6.598;2022-12-07T14:38:39;7.50;;;2.10;;
51852;SDS011;37894;53.172;6.598;2022-12-07T14:41:15;9.88;;;2.70;;
51852;SDS011;37894;53.172;6.598;2022-12-07T14:44:08;6.53;;;2.40;;
51852;SDS011;37894;53.172;6.598;2022-12-07T14:46:39;8.88;;;2.28;;
51852;SDS011;37894;53.172;6.598;2022-12-07T14:49:04;8.63;;;2.15;;
51852;SDS011;37894;53.172;6.598;2022-12-07T14:51:30;4.50;;;1.52;;
51852;SDS011;37894;53.172;6.598;2022-12-07T14:53:56;7.60;;;1.98;;
51852;SDS011;37894;53.172;6.598;2022-12-07T14:56:23;7.88;;;1.67;;
51852;SDS011;37894;53.172;6.598;2022-12-07T14:58:49;5.22;;;1.58;;
51852;SDS011;37894;53.172;6.598;2022-12-07T15:01:15;4.47;;;1.30;;
51852;SDS011;37894;53.172;6.598;2022-12-07T15:03:41;5.95;;;1.60;;
51852;SDS011;37894;53.172;6.598;2022-12-07T15:06:10;5.88;;;1.77;;
51852;SDS011;37894;53.172;6.598;2022-12-07T15:08:40;9.00;;;1.90;;
51852;SDS011;37894;53.172;6.598;2022-12-07T15:11:08;4.22;;;1.48;;
51852;SDS011;37894;53.172;6.598;2022-12-07T15:13:41;5.70;;;1.20;;
51852;SDS011;37894;53.172;6.598;2022-12-07T15:16:26;9.63;;;1.90;;
51852;SDS011;37894;53.172;6.598;2022-12-07T15:18:52;8.27;;;2.10;;
51852;SDS011;37894;53.172;6.598;2022-12-07T15:21:18;11.93;;;1.58;;
51852;SDS011;37894;53.172;6.598;2022-12-07T15:23:45;4.00;;;1.20;;
51852;SDS011;37894;53.172;6.598;2022-12-07T15:26:12;7.20;;;1.38;;
51852;SDS011;37894;53.172;6.598;2022-12-07T15:28:39;8.02;;;1.23;;
51852;SDS011;37894;53.172;6.598;2022-12-07T15:31:15;7.05;;;1.65;;
51852;SDS011;37894;53.172;6.598;2022-12-07T15:33:43;3.85;;;1.27;;
51852;SDS011;37894;53.172;6.598;2022-12-07T15:36:12;9.38;;;1.48;;
51852;SDS011;37894;53.172;6.598;2022-12-07T15:38:45;4.30;;;1.10;;
51852;SDS011;37894;53.172;6.598;2022-12-07T15:41:11;7.82;;;1.00;;
51852;SDS011;37894;53.172;6.598;2022-12-07T15:43:37;3.08;;;1.08;;
51852;SDS011;37894;53.172;6.598;2022-12-07T15:46:21;3.97;;;1.00;;
51852;SDS011;37894;53.172;6.598;2022-12-07T15:48:47;4.18;;;2.20;;
51852;SDS011;37894;53.172;6.598;2022-12-07T15:51:12;3.72;;;1.30;;
51852;SDS011;37894;53.172;6.598;2022-12-07T15:53:38;3.35;;;1.33;;
51852;SDS011;37894;53.172;6.598;2022-12-07T15:56:08;4.65;;;1.40;;
51852;SDS011;37894;53.172;6.598;2022-12-07T15:58:34;6.95;;;1.83;;
51852;SDS011;37894;53.172;6.598;2022-12-07T16:00:59;6.65;;;1.52;;
51852;SDS011;37894;53.172;6.598;2022-12-07T16:03:26;6.68;;;1.27;;
51852;SDS011;37894;53.172;6.598;2022-12-07T16:05:52;5.07;;;1.40;;
51852;SDS011;37894;53.172;6.598;2022-12-07T16:08:18;4.63;;;1.42;;
51852;SDS011;37894;53.172;6.598;2022-12-07T16:10:44;4.75;;;1.25;;
51852;SDS011;37894;53.172;6.598;2022-12-07T16:13:11;5.63;;;3.85;;
51852;SDS011;37894;53.172;6.598;2022-12-07T16:15:39;2.83;;;1.30;;
51852;SDS011;37894;53.172;6.598;2022-12-07T16:18:05;5.63;;;1.75;;
51852;SDS011;37894;53.172;6.598;2022-12-07T16:20:31;5.40;;;1.95;;
51852;SDS011;37894;53.172;6.598;2022-12-07T16:22:57;4.75;;;1.60;;
51852;SDS011;37894;53.172;6.598;2022-12-07T16:25:23;5.75;;;2.10;;
51852;SDS011;37894;53.172;6.598;2022-12-07T16:27:49;6.78;;;2.15;;
51852;SDS011;37894;53.172;6.598;2022-12-07T16:30:15;6.55;;;1.65;;
51852;SDS011;37894;53.172;6.598;2022-12-07T16:32:43;5.90;;;2.20;;
51852;SDS011;37894;53.172;6.598;2022-12-07T16:35:10;8.70;;;3.67;;
51852;SDS011;37894;53.172;6.598;2022-12-07T16:37:36;8.07;;;2.70;;
51852;SDS011;37894;53.172;6.598;2022-12-07T16:40:02;7.47;;;2.80;;
51852;SDS011;37894;53.172;6.598;2022-12-07T16:42:31;6.30;;;2.40;;
51852;SDS011;37894;53.172;6.598;2022-12-07T16:44:57;7.18;;;2.15;;
51852;SDS011;37894;53.172;6.598;2022-12-07T16:47:23;5.82;;;1.98;;
51852;SDS011;37894;53.172;6.598;2022-12-07T16:49:49;9.02;;;1.80;;
51852;SDS011;37894;53.172;6.598;2022-12-07T16:52:14;5.18;;;1.40;;
51852;SDS011;37894;53.172;6.598;2022-12-07T16:54:40;7.38;;;1.67;;
51852;SDS011;37894;53.172;6.598;2022-12-07T16:57:06;6.97;;;1.85;;
51852;SDS011;37894;53.172;6.598;2022-12-07T16:59:31;6.82;;;1.88;;
51852;SDS011;37894;53.172;6.598;2022-12-07T17:01:57;4.55;;;1.50;;
51852;SDS011;37894;53.172;6.598;2022-12-07T17:04:23;6.97;;;3.20;;
51852;SDS011;37894;53.172;6.598;2022-12-07T17:06:49;5.22;;;1.92;;
51852;SDS011;37894;53.172;6.598;2022-12-07T17:09:15;7.07;;;2.95;;
51852;SDS011;37894;53.172;6.598;2022-12-07T17:11:42;12.40;;;6.43;;
51852;SDS011;37894;53.172;6.598;2022-12-07T17:14:09;9.73;;;5.80;;